Time;durP1;ratioP1;P1;durP2;ratioP2;P2;SDS_P1;SDS_P2;PMS_P1;PMS_P2;Temp;Humidity;BMP_temperature;BMP_pressure;BME280_temperature;BME280_humidity;BME280_pressure;Samples;Min_cycle;Max_cycle;Signal;HPM_P1;HPM_P2
2021/11/18 00:00:42;;;;;;;;;;;7.10;93.80;;;;;;5029917;28;19971;-73
2021/11/18 00:03:11;;;;;;;;;;;7.20;93.80;;;;;;5028255;28;20366;-70
2021/11/18 00:05:37;;;;;;;;;;;7.20;93.80;;;;;;5026207;28;20336;-70
2021/11/18 00:08:05;;;;;;;;;;;7.20;93.80;;;;;;5039496;28;20411;-73
2021/11/18 00:10:35;;;;;;;;;;;7.20;93.90;;;;;;5025191;28;20430;-73
2021/11/18 00:13:02;;;;;;;;;;;7.30;93.90;;;;;;5034747;28;20384;-70
2021/11/18 00:15:29;;;;;;;;;;;7.30;94.50;;;;;;5032532;28;19921;-73
2021/11/18 00:18:03;;;;;;;;;;;7.30;94.10;;;;;;5033311;28;19921;-73
2021/11/18 00:20:32;;;;;;;;;;;7.30;94.20;;;;;;5025442;28;20326;-73
2021/11/18 00:22:59;;;;;;;;;;;7.40;94.20;;;;;;5034491;28;20395;-73
2021/11/18 00:25:26;;;;;;;;;;;7.40;94.10;;;;;;5028218;28;19920;-69
2021/11/18 00:27:53;;;;;;;;;;;7.40;94.00;;;;;;5032583;28;19925;-74
2021/11/18 00:30:20;;;;;;;;;;;7.50;94.10;;;;;;5034571;28;19975;-70
2021/11/18 00:32:47;;;;;;;;;;;7.50;94.00;;;;;;5034146;28;20396;-73
2021/11/18 00:35:16;;;;;;;;;;;7.50;94.00;;;;;;5036099;28;19921;-70
2021/11/18 00:37:43;;;;;;;;;;;7.60;94.50;;;;;;5034240;28;19925;-70
2021/11/18 00:40:11;;;;;;;;;;;7.60;94.10;;;;;;5022458;28;19951;-70
2021/11/18 00:42:38;;;;;;;;;;;7.70;94.10;;;;;;5032886;28;19967;-69
2021/11/18 00:45:06;;;;;;;;;;;7.70;94.40;;;;;;5031446;28;19928;-70
2021/11/18 00:47:33;;;;;;;;;;;7.70;94.50;;;;;;5033967;28;19921;-70
2021/11/18 00:50:00;;;;;;;;;;;7.70;94.40;;;;;;5034924;28;19921;-69
2021/11/18 00:52:27;;;;;;;;;;;7.80;94.40;;;;;;5029964;28;19928;-70
2021/11/18 00:54:54;;;;;;;;;;;7.80;94.80;;;;;;5034107;28;20397;-73
2021/11/18 00:57:21;;;;;;;;;;;7.90;94.30;;;;;;5035446;28;19921;-70
2021/11/18 00:59:47;;;;;;;;;;;7.90;94.30;;;;;;5030286;28;19979;-73
2021/11/18 01:02:15;;;;;;;;;;;7.90;94.30;;;;;;5024983;28;19922;-73
2021/11/18 01:04:43;;;;;;;;;;;7.90;94.30;;;;;;5035161;28;19984;-72
2021/11/18 01:07:10;;;;;;;;;;;7.90;94.10;;;;;;5022885;28;19971;-73
2021/11/18 01:09:36;;;;;;;;;;;7.90;94.00;;;;;;5031589;28;20381;-74
2021/11/18 01:12:04;;;;;;;;;;;7.90;94.10;;;;;;5016759;28;19991;-73
2021/11/18 01:14:31;;;;;;;;;;;8.00;94.00;;;;;;5032368;28;19921;-70
2021/11/18 01:16:58;;;;;;;;;;;8.00;94.10;;;;;;5037724;28;20422;-74
2021/11/18 01:19:25;;;;;;;;;;;8.10;94.10;;;;;;5030680;28;19925;-73
2021/11/18 01:21:53;;;;;;;61.33;29.67;;;8.10;94.50;;;;;;5023454;28;19963;-69
2021/11/18 01:24:21;;;;;;;66.53;34.38;;;8.10;94.60;;;;;;5030719;28;20049;-73
2021/11/18 01:26:48;;;;;;;74.70;34.58;;;8.10;94.60;;;;;;5031896;28;20529;-69
2021/11/18 01:29:15;;;;;;;80.57;35.60;;;8.10;94.50;;;;;;5032316;28;20481;-74
2021/11/18 01:31:42;;;;;;;76.13;36.83;;;8.10;94.40;;;;;;5033762;28;20418;-70
2021/11/18 01:34:09;;;;;;;79.95;37.75;;;8.10;94.30;;;;;;5032925;28;20103;-73
2021/11/18 01:36:36;;;;;;;79.28;36.13;;;8.10;94.20;;;;;;5031330;28;20049;-73
2021/11/18 01:39:05;;;;;;;80.03;35.78;;;8.10;94.20;;;;;;5032808;28;20041;-70
2021/11/18 01:41:33;;;;;;;80.57;36.83;;;8.10;94.20;;;;;;5031823;28;20386;-70
2021/11/18 01:44:03;;;;;;;104.90;37.03;;;8.10;94.20;;;;;;5032825;28;20111;-73
2021/11/18 01:46:32;;;;;;;;;;;8.00;94.30;;;;;;5026247;28;20398;-70
2021/11/18 01:48:59;;;;;;;;;;;7.90;94.40;;;;;;5028624;28;20451;-73
2021/11/18 01:51:28;;;;;;;;;;;7.90;94.50;;;;;;5020890;28;19925;-70
2021/11/18 01:53:55;;;;;;;;;;;7.90;94.50;;;;;;5033283;28;19925;-73
2021/11/18 01:56:24;;;;;;;;;;;7.90;94.60;;;;;;5030556;28;19925;-73
2021/11/18 01:58:52;;;;;;;;;;;7.90;94.50;;;;;;5036864;28;19966;-69
2021/11/18 02:01:19;;;;;;;;;;;7.90;94.60;;;;;;5027571;28;19987;-73
2021/11/18 02:03:48;;;;;;;;;;;7.90;94.60;;;;;;5025299;28;19921;-73
2021/11/18 02:06:15;;;;;;;;;;;7.90;94.60;;;;;;5018387;28;19921;-69
2021/11/18 02:08:42;;;;;;;;;;;7.90;94.50;;;;;;5032230;28;20419;-73
2021/11/18 02:11:29;;;;;;;;;;;7.90;95.00;;;;;;5029492;28;19979;-73
2021/11/18 02:13:58;;;;;;;;;;;7.90;94.50;;;;;;5026905;28;19925;-74
2021/11/18 02:16:25;;;;;;;;;;;7.90;94.50;;;;;;5028293;28;19925;-73
2021/11/18 02:18:52;;;;;;;;;;;7.90;94.50;;;;;;5028221;28;20320;-71
2021/11/18 02:21:20;;;;;;;;;;;7.90;94.50;;;;;;5019936;28;19968;-71
2021/11/18 02:23:48;;;;;;;;;;;7.90;94.40;;;;;;5033052;28;20398;-73
2021/11/18 02:26:16;;;;;;;;;;;7.80;94.30;;;;;;5030824;28;20399;-70
2021/11/18 02:28:44;;;;;;;;;;;7.80;94.20;;;;;;5034574;28;20373;-69
2021/11/18 02:31:17;;;;;;;;;;;7.70;94.20;;;;;;5031893;28;20324;-70
2021/11/18 02:33:44;;;;;;;;;;;7.80;94.20;;;;;;5031155;28;20405;-69
2021/11/18 02:36:10;;;;;;;;;;;7.70;94.20;;;;;;5031506;28;19921;-70
2021/11/18 02:38:37;;;;;;;;;;;7.70;94.20;;;;;;5018477;28;19979;-69
2021/11/18 02:41:04;;;;;;;;;;;7.70;94.60;;;;;;5038209;28;20376;-73
2021/11/18 02:43:31;;;;;;;;;;;7.60;94.20;;;;;;5042065;28;19921;-72
2021/11/18 02:45:58;;;;;;;;;;;7.60;94.20;;;;;;5036623;28;19921;-70
2021/11/18 02:48:25;;;;;;;;;;;7.60;94.30;;;;;;5035917;28;19975;-73
2021/11/18 02:50:55;;;;;;;;;;;7.60;94.30;;;;;;5033723;28;19921;-69
2021/11/18 02:53:22;;;;;;;;;;;7.50;94.30;;;;;;5035055;28;20369;-73
2021/11/18 02:55:50;;;;;;;;;;;7.60;94.40;;;;;;5043271;28;19920;-73
2021/11/18 02:58:17;;;;;;;;;;;7.60;94.40;;;;;;5028297;28;20358;-73
2021/11/18 03:00:44;;;;;;;;;;;7.60;94.70;;;;;;5028990;28;19940;-70
2021/11/18 03:03:11;;;;;;;;;;;7.60;94.70;;;;;;5032774;28;19921;-73
2021/11/18 03:05:38;;;;;;;;;;;7.60;94.60;;;;;;5034621;28;19920;-73
2021/11/18 03:08:05;;;;;;;;;;;7.60;94.70;;;;;;5029610;28;19975;-72
2021/11/18 03:10:32;;;;;;;;;;;7.60;94.80;;;;;;5034775;28;19947;-70
2021/11/18 03:12:59;;;;;;;;;;;7.60;94.90;;;;;;5029101;28;19925;-73
2021/11/18 03:15:26;;;;;;;;;;;7.70;94.90;;;;;;5023284;28;19921;-70
2021/11/18 03:17:53;;;;;;;;;;;7.70;94.90;;;;;;5035575;28;19921;-73
2021/11/18 03:20:21;;;;;;;;;;;7.70;94.90;;;;;;5029661;28;19967;-73
2021/11/18 03:22:47;;;;;;;;;;;7.70;94.90;;;;;;5029257;28;19987;-70
2021/11/18 03:25:16;;;;;;;;;;;7.70;94.90;;;;;;5031249;28;19929;-73
2021/11/18 03:27:43;;;;;;;;;;;7.70;95.00;;;;;;5036034;28;19975;-73
2021/11/18 03:30:11;;;;;;;;;;;7.70;94.90;;;;;;5034794;28;19921;-70
2021/11/18 03:32:38;;;;;;;;;;;7.70;94.90;;;;;;5034448;28;19920;-69
2021/11/18 03:35:06;;;;;;;;;;;7.70;94.90;;;;;;5034426;28;19932;-70
2021/11/18 03:37:33;;;;;;;;;;;7.70;94.90;;;;;;5029913;28;19921;-70
2021/11/18 03:40:00;;;;;;;;;;;7.70;94.90;;;;;;5031718;28;19921;-73
2021/11/18 03:42:27;;;;;;;;;;;7.70;94.90;;;;;;5033731;28;19928;-70
2021/11/18 03:44:54;;;;;;;;;;;7.70;94.90;;;;;;5035105;28;19948;-73
2021/11/18 03:47:20;;;;;;;;;;;7.70;94.80;;;;;;5034879;28;19921;-70
2021/11/18 03:49:47;;;;;;;;;;;7.60;94.80;;;;;;5026066;28;19921;-73
2021/11/18 03:52:14;;;;;;;;;;;7.50;94.70;;;;;;5041094;28;19921;-73
2021/11/18 03:54:43;;;;;;;;;;;7.50;94.70;;;;;;5028462;28;19936;-69
2021/11/18 03:57:10;;;;;;;67.70;18.90;;;7.40;94.80;;;;;;5030296;28;19920;-74
2021/11/18 03:59:39;;;;;;;37.65;18.45;;;7.30;94.70;;;;;;5033381;28;20061;-69
2021/11/18 04:02:07;;;;;;;45.38;18.42;;;7.30;94.70;;;;;;5030883;28;20454;-70
2021/11/18 04:04:38;;;;;;;36.53;19.58;;;7.30;94.80;;;;;;5027263;28;20478;-74
2021/11/18 04:07:05;;;;;;;23.73;16.98;;;7.30;94.80;;;;;;5023932;28;20046;-70
2021/11/18 04:09:33;;;;;;;23.65;16.67;;;7.30;94.80;;;;;;5028184;28;20053;-70
2021/11/18 04:12:00;;;;;;;37.20;18.83;;;7.30;94.80;;;;;;5028020;28;20057;-73
2021/11/18 04:14:32;;;;;;;25.52;18.27;;;7.20;94.80;;;;;;5034077;28;20460;-74
2021/11/18 04:16:59;;;;;;;29.48;17.52;;;7.20;94.80;;;;;;5033971;28;20057;-74
2021/11/18 04:19:26;;;;;;;24.35;17.30;;;7.20;94.80;;;;;;5036418;28;20053;-71
2021/11/18 04:21:53;;;;;;;27.95;17.67;;;7.20;94.80;;;;;;5027756;28;20041;-73
2021/11/18 04:24:24;;;;;;;25.70;18.70;;;7.20;94.90;;;;;;5030327;28;20053;-70
2021/11/18 04:26:52;;;;;;;28.38;18.63;;;7.10;94.80;;;;;;5033817;28;20046;-74
2021/11/18 04:29:27;;;;;;;27.10;17.23;;;7.10;94.90;;;;;;5021274;28;20050;-73
2021/11/18 04:32:14;;;;;;;;;;;7.10;94.90;;;;;;5032251;28;20046;-74
2021/11/18 04:34:41;;;;;;;;;;;7.10;94.90;;;;;;5043059;28;19925;-69
2021/11/18 04:37:09;;;;;;;;;;;7.00;94.70;;;;;;5032801;28;19925;-70
2021/11/18 04:39:36;;;;;;;;;;;6.90;94.70;;;;;;5031915;28;19928;-70
2021/11/18 04:42:04;;;;;;;;;;;6.90;94.70;;;;;;5030541;28;19967;-69
2021/11/18 04:44:31;;;;;;;;;;;6.80;94.70;;;;;;5029942;28;19921;-74
2021/11/18 04:46:59;;;;;;;;;;;6.80;94.80;;;;;;5030894;28;20348;-74
2021/11/18 04:49:26;;;;;;;;;;;6.70;94.70;;;;;;5038708;28;20348;-73
2021/11/18 04:51:52;;;;;;;;;;;6.70;94.70;;;;;;5022630;28;19925;-70
2021/11/18 04:54:20;;;;;;;;;;;6.60;94.70;;;;;;5039137;28;19920;-70
2021/11/18 04:56:47;;;;;;;;;;;6.60;94.80;;;;;;5034131;28;20347;-71
2021/11/18 04:59:14;;;;;;;;;;;6.50;94.70;;;;;;5033877;28;19944;-71
2021/11/18 05:01:40;;;;;;;;;;;6.50;94.70;;;;;;5035889;28;19927;-69
2021/11/18 05:04:08;;;;;;;;;;;6.40;94.60;;;;;;5036196;28;19943;-70
2021/11/18 05:06:35;;;;;;;;;;;6.10;94.50;;;;;;5032452;28;19991;-73
2021/11/18 05:09:04;;;;;;;;;;;6.00;94.70;;;;;;5020458;28;19972;-69
2021/11/18 05:11:31;;;;;;;;;;;6.00;94.80;;;;;;5033076;28;19921;-73
2021/11/18 05:13:58;;;;;;;;;;;6.10;95.00;;;;;;5029451;28;20365;-74
2021/11/18 05:16:24;;;;;;;;;;;6.00;94.80;;;;;;5058196;28;19925;-73
2021/11/18 05:18:51;;;;;;;;;;;6.00;94.80;;;;;;5033391;28;19920;-74
2021/11/18 05:21:20;;;;;;;;;;;6.00;94.80;;;;;;5031747;28;20434;-71
2021/11/18 05:23:48;;;;;;;;;;;6.00;94.80;;;;;;5033762;28;19925;-70
2021/11/18 05:26:16;;;;;;;;;;;6.00;94.90;;;;;;5032338;28;19921;-73
2021/11/18 05:28:44;;;;;;;;;;;6.00;94.90;;;;;;5028471;28;20350;-69
2021/11/18 05:31:11;;;;;;;;;;;5.90;94.80;;;;;;5031829;28;19971;-70
2021/11/18 05:33:38;;;;;;;;;;;5.90;94.90;;;;;;5021376;28;20262;-70
2021/11/18 05:36:05;;;;;;;;;;;5.90;94.90;;;;;;5027044;28;19920;-74
2021/11/18 05:38:32;;;;;;;;;;;5.90;94.80;;;;;;5033467;28;19948;-70
2021/11/18 05:40:59;;;;;;;;;;;5.90;94.80;;;;;;5032578;28;20336;-74
2021/11/18 05:43:27;;;;;;;;;;;5.80;94.80;;;;;;5020895;28;19921;-70
2021/11/18 05:45:54;;;;;;;;;;;5.80;94.80;;;;;;5031970;28;19971;-74
2021/11/18 05:48:21;;;;;;;;;;;5.80;94.90;;;;;;5029467;28;19983;-69
2021/11/18 05:50:52;;;;;;;;;;;5.80;94.90;;;;;;5029664;28;20324;-70
2021/11/18 05:53:22;;;;;;;;;;;5.80;94.90;;;;;;5033393;28;19925;-70
2021/11/18 05:55:48;;;;;;;;;;;5.80;94.90;;;;;;5027850;28;19921;-69
2021/11/18 05:58:15;;;;;;;;;;;5.70;94.90;;;;;;5025528;28;20419;-74
2021/11/18 06:00:42;;;;;;;;;;;5.70;94.90;;;;;;5030790;28;20327;-73
2021/11/18 06:03:09;;;;;;;;;;;5.70;95.00;;;;;;5032941;28;19921;-73
2021/11/18 06:05:36;;;;;;;;;;;5.70;95.00;;;;;;5033166;28;19921;-70
2021/11/18 06:08:03;;;;;;;;;;;5.70;95.10;;;;;;5032057;28;19928;-73
2021/11/18 06:10:30;;;;;;;;;;;5.70;95.20;;;;;;5033142;28;19921;-70
2021/11/18 06:12:57;;;;;;;;;;;5.70;95.20;;;;;;5042116;28;19932;-74
2021/11/18 06:15:24;;;;;;;;;;;5.70;95.20;;;;;;5032679;28;19925;-73
2021/11/18 06:17:51;;;;;;;;;;;5.70;95.30;;;;;;5034959;28;20373;-73
2021/11/18 06:20:18;;;;;;;;;;;5.70;95.40;;;;;;5037242;28;19921;-70
2021/11/18 06:22:46;;;;;;;;;;;5.80;95.50;;;;;;5033004;28;19921;-70
2021/11/18 06:25:14;;;;;;;;;;;5.80;95.60;;;;;;5035826;28;20435;-69
2021/11/18 06:27:43;;;;;;;;;;;5.80;95.60;;;;;;5036025;28;19921;-73
2021/11/18 06:30:12;;;;;;;;;;;5.90;95.70;;;;;;5032273;28;19967;-69
2021/11/18 06:32:39;;;;;;;;;;;5.90;95.70;;;;;;5036382;28;19947;-73
2021/11/18 06:35:06;;;;;;;;;;;6.00;95.70;;;;;;5036666;28;20284;-73
2021/11/18 06:37:33;;;;;;;;;;;6.00;95.70;;;;;;5035545;28;20361;-73
2021/11/18 06:40:00;;;;;;;;;;;6.00;95.70;;;;;;5033269;28;19925;-70
2021/11/18 06:42:27;;;;;;;;;;;6.10;95.70;;;;;;5036359;28;19921;-73
2021/11/18 06:44:54;;;;;;;;;;;6.10;95.70;;;;;;5032411;28;19921;-73
2021/11/18 06:47:21;;;;;;;;;;;6.10;95.70;;;;;;5031023;28;19921;-70
2021/11/18 06:49:47;;;;;;;;;;;6.10;95.60;;;;;;5031320;28;19925;-73
2021/11/18 06:52:16;;;;;;;;;;;6.10;95.50;;;;;;5026022;28;19921;-69
2021/11/18 06:54:43;;;;;;;;;;;6.10;95.40;;;;;;5036629;28;19921;-69
2021/11/18 06:57:10;;;;;;;;;;;6.10;95.40;;;;;;5034622;28;19925;-69
2021/11/18 06:59:36;;;;;;;;;;;6.10;95.30;;;;;;5036192;28;19920;-74
2021/11/18 07:02:03;;;;;;;;;;;6.00;95.20;;;;;;5034700;28;19925;-69
2021/11/18 07:04:31;;;;;;;;;;;6.00;95.20;;;;;;5021488;28;19921;-73
2021/11/18 07:06:57;;;;;;;;;;;6.00;95.20;;;;;;5035962;28;20365;-70
2021/11/18 07:09:24;;;;;;;;;;;6.00;95.20;;;;;;5047159;28;20361;-74
2021/11/18 07:11:51;;;;;;;;;;;6.00;95.20;;;;;;5035942;28;19924;-74
2021/11/18 07:14:18;;;;;;;;;;;5.90;95.30;;;;;;5033685;28;19996;-73
2021/11/18 07:16:45;;;;;;;;;;;6.00;95.30;;;;;;5036189;28;19936;-73
2021/11/18 07:19:12;;;;;;;;;;;6.00;95.30;;;;;;5035881;28;19967;-73
2021/11/18 07:21:40;;;;;;;;;;;6.00;95.30;;;;;;5033414;28;19975;-70
2021/11/18 07:24:07;;;;;;;;;;;6.00;95.40;;;;;;5039882;28;19924;-69
2021/11/18 07:26:37;;;;;;;;;;;6.00;95.40;;;;;;5032612;28;20251;-69
2021/11/18 07:29:04;;;;;;;;;;;6.10;95.50;;;;;;5027418;28;19960;-70
2021/11/18 07:31:32;;;;;;;;;;;6.10;95.50;;;;;;5030770;28;19928;-73
2021/11/18 07:33:59;;;;;;;;;;;6.10;95.50;;;;;;5034929;28;19924;-74
2021/11/18 07:36:26;;;;;;;;;;;6.20;95.50;;;;;;5035159;28;19924;-70
2021/11/18 07:38:53;;;;;;;;;;;6.20;95.50;;;;;;5033126;28;20304;-73
2021/11/18 07:41:20;;;;;;;;;;;6.30;95.60;;;;;;5034949;28;20353;-74
2021/11/18 07:43:47;;;;;;;;;;;6.30;95.60;;;;;;5029779;28;19929;-73
2021/11/18 07:46:34;;;;;;;;;;;6.40;95.60;;;;;;5029586;28;19928;-70
2021/11/18 07:49:02;;;;;;;;;;;6.40;95.50;;;;;;5032475;28;20365;-75
2021/11/18 07:51:28;;;;;;;;;;;6.40;95.50;;;;;;5038688;28;19990;-76
2021/11/18 07:53:55;;;;;;;;;;;6.40;95.40;;;;;;5034987;28;19971;-75
2021/11/18 07:56:23;;;;;;;;;;;6.40;95.40;;;;;;5028086;28;20392;-69
2021/11/18 07:58:50;;;;;;;;;;;6.40;95.40;;;;;;5035052;28;19921;-75
2021/11/18 08:01:17;;;;;;;;;;;6.50;95.40;;;;;;5024937;28;19921;-69
2021/11/18 08:03:44;;;;;;;;;;;6.50;95.40;;;;;;5032864;28;19928;-68
2021/11/18 08:06:13;;;;;;;;;;;6.50;95.40;;;;;;5034344;28;19936;-74
2021/11/18 08:08:45;;;;;;;;;;;6.50;95.30;;;;;;5030498;28;20328;-68
2021/11/18 08:11:13;;;;;;;;;;;6.60;95.40;;;;;;5031706;28;20008;-73
2021/11/18 08:13:40;;;;;;;;;;;6.60;95.40;;;;;;5031180;28;19971;-75
2021/11/18 08:16:07;;;;;;;;;;;6.70;95.50;;;;;;5039329;28;20356;-74
2021/11/18 08:18:34;;;;;;;;;;;6.70;95.40;;;;;;5035416;28;19995;-75
2021/11/18 08:21:01;;;;;;;;;;;6.70;95.40;;;;;;5029587;28;19974;-75
2021/11/18 08:23:32;;;;;;;;;;;6.70;95.40;;;;;;5032659;28;19968;-76
2021/11/18 08:26:02;;;;;;;;;;;6.80;95.50;;;;;;5032732;28;20312;-75
2021/11/18 08:28:29;;;;;;;;;;;6.80;95.50;;;;;;5028687;28;20446;-69
2021/11/18 08:30:56;;;;;;;;;;;6.80;95.50;;;;;;5024467;28;19983;-75
2021/11/18 08:33:23;;;;;;;;;;;6.90;95.50;;;;;;5031277;28;20008;-74
2021/11/18 08:35:49;;;;;;;;;;;6.90;95.50;;;;;;5032852;28;19921;-69
2021/11/18 08:38:17;;;;;;;;;;;6.90;95.60;;;;;;5027045;28;20369;-69
2021/11/18 08:40:48;;;;;;;;;;;7.00;95.60;;;;;;5028977;28;19925;-69
2021/11/18 08:43:14;;;;;;;;;;;7.00;95.60;;;;;;5032629;28;19935;-69
2021/11/18 08:45:41;;;;;;;;;;;7.00;95.60;;;;;;5032447;28;19925;-71
2021/11/18 08:48:09;;;;;;;;;;;7.10;95.70;;;;;;5038734;28;20332;-74
2021/11/18 08:50:37;;;;;;;;;;;7.10;95.70;;;;;;5050557;28;19925;-68
2021/11/18 08:53:04;;;;;;;;;;;7.20;95.70;;;;;;5025544;28;19930;-69
2021/11/18 08:55:33;;;;;;;;;;;7.30;95.70;;;;;;5024331;28;19921;-75
2021/11/18 08:58:01;;;;;;;;;;;7.40;95.70;;;;;;5031282;28;19921;-74
2021/11/18 09:00:31;;;;;;;;;;;7.40;95.70;;;;;;5031542;28;20398;-69
2021/11/18 09:02:57;;;;;;;;;;;7.50;95.70;;;;;;5020898;28;19921;-75
2021/11/18 09:05:25;;;;;;;;;;;7.50;95.70;;;;;;5023531;28;20429;-74
2021/11/18 09:07:52;;;;;;;;;;;7.60;95.70;;;;;;5031162;28;19979;-69
2021/11/18 09:10:20;;;;;;;;;;;7.70;95.80;;;;;;5022800;28;19929;-70
2021/11/18 09:12:47;;;;;;;;;;;7.80;95.70;;;;;;5031005;28;19928;-68
2021/11/18 09:15:16;;;;;;;;;;;7.90;95.70;;;;;;5030133;28;19922;-75
2021/11/18 09:17:43;;;;;;;;;;;8.00;95.70;;;;;;5027917;28;19969;-74
2021/11/18 09:20:12;;;;;;;;;;;8.00;95.50;;;;;;5021024;28;20340;-68
2021/11/18 09:22:39;;;;;;;;;;;8.10;95.40;;;;;;5028045;28;19924;-69
2021/11/18 09:25:09;;;;;;;;;;;8.10;95.20;;;;;;5029661;28;19920;-74
2021/11/18 09:27:38;;;;;;;;;;;8.10;95.20;;;;;;5031324;28;19929;-69
2021/11/18 09:30:07;;;;;;;;;;;8.10;95.20;;;;;;5026395;28;20324;-75
2021/11/18 09:32:34;;;;;;;;;;;8.20;95.20;;;;;;5030341;28;19975;-74
2021/11/18 09:35:04;;;;;;;;;;;8.20;95.00;;;;;;5025082;28;19925;-75
2021/11/18 09:37:31;;;;;;;35.10;17.13;;;8.20;95.00;;;;;;5031292;28;19927;-74
2021/11/18 09:39:58;;;;;;;41.80;21.83;;;8.30;95.00;;;;;;5028463;28;20959;-71
2021/11/18 09:43:07;;;;;;;38.37;21.83;;;8.40;95.00;;;;;;5033579;28;20460;-70
2021/11/18 09:45:48;;;;;;;39.05;21.27;;;8.50;95.00;;;;;;5027358;28;20941;-74
2021/11/18 09:48:18;;;;;;;36.80;21.03;;;8.60;94.80;;;;;;5032174;28;20416;-68
2021/11/18 09:50:54;;;;;;;32.97;20.45;;;8.70;95.00;;;;;;5029355;28;20476;-69
2021/11/18 09:53:47;;;;;;;33.65;17.63;;;8.70;94.30;;;;;;5031515;28;20057;-69
2021/11/18 09:56:35;;;;;;;32.00;17.20;;;8.70;94.20;;;;;;5022453;28;20049;-70
2021/11/18 09:59:41;;;;;;;30.42;19.80;;;8.80;94.30;;;;;;5041705;28;20406;-71
2021/11/18 10:02:45;;;;;;;30.58;18.65;;;9.00;94.30;;;;;;5027090;28;20460;-75
2021/11/18 10:05:19;;;;;;;27.48;17.27;;;9.30;93.90;;;;;;5030064;28;20497;-69
2021/11/18 10:07:54;;;;;;;26.38;17.08;;;9.60;93.50;;;;;;5030084;28;20408;-69
2021/11/18 10:10:29;;;;;;;23.67;15.93;;;9.90;92.80;;;;;;5031252;28;20405;-70
2021/11/18 10:13:13;;;;;;;25.00;16.60;;;10.20;92.70;;;;;;5033341;28;20432;-75
2021/11/18 10:16:06;;;;;;;28.38;17.65;;;10.40;91.50;;;;;;5031197;28;20403;-74
2021/11/18 10:18:41;;;;;;;28.67;18.40;;;10.40;90.70;;;;;;5032060;28;20448;-71
2021/11/18 10:21:31;;;;;;;30.00;19.27;;;10.40;91.30;;;;;;5029351;28;20456;-73
2021/11/18 10:24:06;;;;;;;26.00;17.75;;;10.30;91.00;;;;;;5024843;28;20523;-74
2021/11/18 10:26:40;;;;;;;24.08;16.73;;;10.40;91.40;;;;;;5035861;28;20398;-73
2021/11/18 10:29:27;;;;;;;26.52;18.02;;;10.50;91.30;;;;;;5026688;28;20478;-70
2021/11/18 10:31:56;;;;;;;23.67;17.23;;;10.60;91.00;;;;;;5033968;28;20398;-68
2021/11/18 10:34:42;;;;;;;25.97;18.00;;;10.70;91.00;;;;;;5029280;28;20434;-76
2021/11/18 10:37:14;;;;;;;24.73;16.83;;;10.40;90.00;;;;;;5029970;28;20920;-71
2021/11/18 10:39:49;;;;;;;22.83;15.90;;;10.50;90.70;;;;;;5031522;28;20440;-73
2021/11/18 10:42:21;;;;;;;27.77;17.83;;;10.60;90.80;;;;;;5033993;28;20418;-73
2021/11/18 10:44:54;;;;;;;24.83;16.58;;;10.70;89.30;;;;;;5031955;28;20422;-75
2021/11/18 10:47:43;;;;;;;26.90;17.75;;;10.90;90.30;;;;;;5032605;28;20833;-70
2021/11/18 10:50:39;;;;;;;22.83;15.82;;;11.10;90.10;;;;;;5033298;28;20402;-76
2021/11/18 10:53:26;;;;;;;23.65;16.25;;;11.20;88.00;;;;;;5031296;28;20817;-72
2021/11/18 10:55:56;;;;;;;24.02;16.52;;;11.30;89.20;;;;;;5030098;28;20740;-75
2021/11/18 10:58:26;;;;;;;25.13;16.98;;;11.30;87.60;;;;;;5031669;28;20429;-71
2021/11/18 11:01:25;;;;;;;25.73;17.15;;;11.40;88.10;;;;;;5024015;28;20478;-74
2021/11/18 11:03:58;;;;;;;23.48;16.85;;;11.40;88.20;;;;;;5020375;28;20511;-75
2021/11/18 11:06:52;;;;;;;23.88;16.08;;;11.60;88.60;;;;;;5016613;28;20424;-71
2021/11/18 11:09:28;;;;;;;19.92;13.40;;;11.90;89.40;;;;;;5026642;28;20663;-72
2021/11/18 11:12:06;;;;;;;22.75;14.32;;;12.00;87.20;;;;;;5022354;28;20068;-73
2021/11/18 11:14:52;;;;;;;21.25;13.20;;;12.20;85.90;;;;;;5045909;28;20517;-71
2021/11/18 11:17:31;;;;;;;;;;;12.30;85.90;;;;;;5022071;28;20457;-72
2021/11/18 11:20:03;;;;;;;;;;;12.50;86.40;;;;;;5045772;28;19921;-70
2021/11/18 11:23:11;;;;;;;19.65;13.65;;;12.70;84.90;;;;;;5018437;28;19979;-74
2021/11/18 11:26:00;;;;;;;21.98;15.57;;;12.40;81.80;;;;;;5026630;28;20413;-74
2021/11/18 11:28:36;;;;;;;18.85;13.40;;;12.50;82.80;;;;;;5023526;28;20049;-75
2021/11/18 11:31:31;;;;;;;20.60;13.13;;;12.50;82.90;;;;;;5022172;28;20044;-70
2021/11/18 11:34:30;;;;;;;22.90;14.80;;;12.40;82.40;;;;;;5023648;28;20557;-71
2021/11/18 11:37:06;;;;;;;22.52;15.27;;;12.30;83.10;;;;;;5020674;28;20053;-74
2021/11/18 11:39:51;;;;;;;22.02;14.32;;;12.30;83.40;;;;;;5018057;28;20096;-76
2021/11/18 11:42:36;;;;;;;21.27;14.60;;;12.50;84.70;;;;;;5029281;28;20037;-71
2021/11/18 11:45:42;;;;;;;22.95;16.52;;;12.70;82.50;;;;;;5030358;28;20811;-69
2021/11/18 11:48:40;;;;;;;22.95;16.02;;;12.80;81.20;;;;;;5031111;28;20057;-73
2021/11/18 11:51:32;;;;;;;21.17;14.35;;;12.80;80.10;;;;;;5039563;28;20107;-70
2021/11/18 11:53:59;;;;;;;;;;;12.90;79.90;;;;;;5030864;28;20401;-70
2021/11/18 11:56:37;;;;;;;;;;;12.80;81.20;;;;;;5040548;28;20366;-71
2021/11/18 11:59:11;;;;;;;;;;;12.90;81.00;;;;;;5029532;28;19972;-71
2021/11/18 12:01:47;;;;;;;;;;;13.00;80.90;;;;;;5028538;28;19933;-71
2021/11/18 12:04:21;;;;;;;;;;;13.10;80.80;;;;;;5032057;28;19921;-75
2021/11/18 12:07:17;;;;;;;;;;;13.20;80.00;;;;;;5026855;28;19940;-70
2021/11/18 12:10:18;;;;;;;19.75;12.32;;;13.30;81.90;;;;;;5027267;28;20323;-70
2021/11/18 12:12:49;;;;;;;23.27;15.18;;;13.60;81.80;;;;;;5028670;28;20482;-70
2021/11/18 12:15:22;;;;;;;22.80;17.23;;;13.90;80.80;;;;;;5028217;28;20422;-75
2021/11/18 12:17:55;;;;;;;23.50;16.33;;;13.90;78.50;;;;;;5030726;28;20045;-70
2021/11/18 12:20:28;;;;;;;23.00;16.60;;;13.90;78.00;;;;;;5031409;28;20051;-75
2021/11/18 12:23:07;;;;;;;22.25;15.63;;;13.80;79.40;;;;;;5021693;28;20045;-69
2021/11/18 12:26:11;;;;;;;24.20;15.90;;;13.80;77.50;;;;;;5029678;28;20049;-74
2021/11/18 12:28:53;;;;;;;24.33;16.40;;;13.70;78.00;;;;;;5029634;28;20095;-76
2021/11/18 12:31:26;;;;;;;24.50;16.52;;;13.80;78.30;;;;;;5033186;28;20060;-71
2021/11/18 12:34:00;;;;;;;24.80;16.65;;;13.80;78.50;;;;;;5027260;28;20130;-75
2021/11/18 12:36:35;;;;;;;;;;;13.90;77.70;;;;;;5026628;28;20042;-71
2021/11/18 12:39:43;;;;;;;24.17;15.50;;;13.90;77.30;;;;;;5028231;28;19921;-70
2021/11/18 12:42:16;;;;;;;24.40;16.08;;;13.80;77.40;;;;;;5026113;28;20041;-70
2021/11/18 12:44:50;;;;;;;20.60;15.68;;;13.90;77.10;;;;;;5028157;28;20045;-75
2021/11/18 12:47:21;;;;;;;22.90;14.90;;;14.10;78.40;;;;;;5032916;28;20078;-72
2021/11/18 12:49:52;;;;;;;23.05;17.90;;;14.10;77.20;;;;;;5032388;28;20422;-70
2021/11/18 12:52:31;;;;;;;25.50;16.67;;;14.20;76.70;;;;;;5030106;28;20095;-76
2021/11/18 12:55:13;;;;;;;23.73;16.85;;;14.30;75.80;;;;;;5031939;28;20547;-70
2021/11/18 12:57:47;;;;;;;19.60;15.50;;;14.30;75.70;;;;;;5030778;28;20099;-75
2021/11/18 13:00:16;;;;;;;20.45;14.50;;;14.20;75.70;;;;;;5034893;28;20041;-70
2021/11/18 13:02:57;;;;;;;19.98;15.25;;;14.20;76.70;;;;;;5031789;28;20049;-75
2021/11/18 13:05:30;;;;;;;20.63;15.07;;;14.10;76.40;;;;;;5029542;28;20052;-75
2021/11/18 13:07:58;;;;;;;20.90;14.05;;;14.00;76.40;;;;;;5030751;28;20037;-75
2021/11/18 13:10:27;;;;;;;;;;;13.90;76.70;;;;;;5030689;28;20049;-71
2021/11/18 13:13:03;;;;;;;22.35;16.75;;;13.80;76.60;;;;;;5033229;28;19936;-75
2021/11/18 13:15:41;;;;;;;20.42;14.80;;;13.70;77.70;;;;;;5039101;28;20045;-72
2021/11/18 13:18:35;;;;;;;21.05;15.45;;;13.70;78.30;;;;;;5031937;28;20046;-75
2021/11/18 13:21:22;;;;;;;25.02;16.52;;;13.70;78.40;;;;;;5016664;28;20412;-75
2021/11/18 13:24:04;;;;;;;20.88;14.80;;;13.80;77.60;;;;;;5032631;28;20047;-75
2021/11/18 13:26:34;;;;;;;20.80;15.70;;;13.80;77.40;;;;;;5028963;28;20493;-75
2021/11/18 13:29:19;;;;;;;19.73;14.38;;;13.70;77.00;;;;;;5032656;28;20512;-71
2021/11/18 13:32:00;;;;;;;22.42;16.05;;;13.70;77.30;;;;;;5027591;28;20481;-74
2021/11/18 13:35:19;;;;;;;20.17;15.05;;;13.70;78.20;;;;;;5032018;28;20056;-71
2021/11/18 13:37:48;;;;;;;19.63;14.23;;;13.70;77.70;;;;;;5030559;28;20056;-72
2021/11/18 13:40:27;;;;;;;22.38;15.23;;;13.70;78.50;;;;;;5032222;28;20050;-75
2021/11/18 13:42:57;;;;;;;19.95;15.15;;;13.60;78.70;;;;;;5030526;28;20049;-71
2021/11/18 13:45:28;;;;;;;20.95;15.48;;;13.70;78.10;;;;;;5030192;28;20469;-73
2021/11/18 13:48:05;;;;;;;20.27;15.10;;;13.60;78.40;;;;;;5027492;28;20038;-70
2021/11/18 13:50:35;;;;;;;18.85;14.48;;;13.60;78.40;;;;;;5032768;28;20060;-72
2021/11/18 13:53:24;;;;;;;21.15;15.55;;;13.70;77.70;;;;;;5033079;28;20107;-71
2021/11/18 13:55:59;;;;;;;18.48;13.25;;;13.80;78.00;;;;;;5019373;28;20060;-71
2021/11/18 13:58:35;;;;;;;25.25;15.88;;;13.70;77.50;;;;;;5042208;28;20099;-71
2021/11/18 14:01:50;;;;;;;19.83;14.90;;;13.60;76.70;;;;;;5030542;28;20099;-75
2021/11/18 14:04:27;;;;;;;18.42;13.52;;;13.60;78.30;;;;;;5028606;28;20048;-72
2021/11/18 14:06:56;;;;;;;18.70;13.70;;;13.60;78.40;;;;;;5031038;28;20532;-75
2021/11/18 14:09:29;;;;;;;19.38;13.65;;;13.50;78.60;;;;;;5031169;28;20038;-72